sensor_id;sensor_type;location;lat;lon;timestamp;temperature;humidity
6666;DHT22;3369;49.906;8.598;2022-08-04T00:02:18;22.40;82.80
6666;DHT22;3369;49.906;8.598;2022-08-04T00:04:57;22.40;83.10
6666;DHT22;3369;49.906;8.598;2022-08-04T00:10:09;22.30;83.30
6666;DHT22;3369;49.906;8.598;2022-08-04T00:12:41;22.20;83.60
6666;DHT22;3369;49.906;8.598;2022-08-04T00:15:10;22.20;83.80
6666;DHT22;3369;49.906;8.598;2022-08-04T00:17:59;22.20;83.80
6666;DHT22;3369;49.906;8.598;2022-08-04T00:20:29;22.20;83.90
6666;DHT22;3369;49.906;8.598;2022-08-04T00:22:56;22.20;84.10
6666;DHT22;3369;49.906;8.598;2022-08-04T00:25:23;22.10;84.10
6666;DHT22;3369;49.906;8.598;2022-08-04T00:27:50;22.10;84.30
6666;DHT22;3369;49.906;8.598;2022-08-04T00:30:15;22.10;84.50
6666;DHT22;3369;49.906;8.598;2022-08-04T00:32:42;22.00;84.40
6666;DHT22;3369;49.906;8.598;2022-08-04T00:35:08;22.00;84.50
6666;DHT22;3369;49.906;8.598;2022-08-04T00:37:36;22.00;84.60
6666;DHT22;3369;49.906;8.598;2022-08-04T00:40:14;22.00;84.70
6666;DHT22;3369;49.906;8.598;2022-08-04T00:59:44;21.80;85.30
6666;DHT22;3369;49.906;8.598;2022-08-04T01:02:30;21.80;85.50
6666;DHT22;3369;49.906;8.598;2022-08-04T01:07:36;21.70;85.90
6666;DHT22;3369;49.906;8.598;2022-08-04T01:10:09;21.60;86.00
6666;DHT22;3369;49.906;8.598;2022-08-04T01:12:39;21.60;86.30
6666;DHT22;3369;49.906;8.598;2022-08-04T01:20:26;21.50;87.00
6666;DHT22;3369;49.906;8.598;2022-08-04T01:30:19;21.30;88.60
6666;DHT22;3369;49.906;8.598;2022-08-04T01:32:51;21.20;88.80
6666;DHT22;3369;49.906;8.598;2022-08-04T01:57:11;20.90;88.80
6666;DHT22;3369;49.906;8.598;2022-08-04T01:59:37;20.90;89.80
6666;DHT22;3369;49.906;8.598;2022-08-04T02:02:04;20.80;90.10
6666;DHT22;3369;49.906;8.598;2022-08-04T02:04:31;20.80;90.30
6666;DHT22;3369;49.906;8.598;2022-08-04T02:10:04;20.70;90.70
6666;DHT22;3369;49.906;8.598;2022-08-04T02:15:30;20.60;91.00
6666;DHT22;3369;49.906;8.598;2022-08-04T02:20:38;20.50;91.40
6666;DHT22;3369;49.906;8.598;2022-08-04T02:23:13;20.50;91.60
6666;DHT22;3369;49.906;8.598;2022-08-04T02:25:45;20.50;91.60
6666;DHT22;3369;49.906;8.598;2022-08-04T02:31:32;20.50;91.90
6666;DHT22;3369;49.906;8.598;2022-08-04T02:34:18;20.50;92.00
6666;DHT22;3369;49.906;8.598;2022-08-04T02:36:47;20.50;92.10
6666;DHT22;3369;49.906;8.598;2022-08-04T02:39:19;20.50;92.20
6666;DHT22;3369;49.906;8.598;2022-08-04T02:41:46;20.40;92.30
6666;DHT22;3369;49.906;8.598;2022-08-04T02:44:13;20.50;92.40
6666;DHT22;3369;49.906;8.598;2022-08-04T02:46:42;20.50;92.50
6666;DHT22;3369;49.906;8.598;2022-08-04T02:49:09;20.50;92.50
6666;DHT22;3369;49.906;8.598;2022-08-04T02:51:41;20.40;92.50
6666;DHT22;3369;49.906;8.598;2022-08-04T02:54:07;20.50;92.70
6666;DHT22;3369;49.906;8.598;2022-08-04T02:56:34;20.50;92.80
6666;DHT22;3369;49.906;8.598;2022-08-04T02:59:05;20.40;92.90
6666;DHT22;3369;49.906;8.598;2022-08-04T03:01:32;20.40;93.00
6666;DHT22;3369;49.906;8.598;2022-08-04T03:04:12;20.40;93.10
6666;DHT22;3369;49.906;8.598;2022-08-04T03:37:50;20.20;93.70
6666;DHT22;3369;49.906;8.598;2022-08-04T03:51:54;20.10;94.00
6666;DHT22;3369;49.906;8.598;2022-08-04T04:00:11;20.00;94.30
6666;DHT22;3369;49.906;8.598;2022-08-04T04:31:46;19.90;95.20
6666;DHT22;3369;49.906;8.598;2022-08-04T04:37:11;19.80;95.30
6666;DHT22;3369;49.906;8.598;2022-08-04T04:39:54;19.80;95.70
6666;DHT22;3369;49.906;8.598;2022-08-04T04:48:11;19.90;95.90
6666;DHT22;3369;49.906;8.598;2022-08-04T04:51:18;19.90;96.50
6666;DHT22;3369;49.906;8.598;2022-08-04T04:54:05;19.90;96.30
6666;DHT22;3369;49.906;8.598;2022-08-04T04:56:49;19.90;96.50
6666;DHT22;3369;49.906;8.598;2022-08-04T04:59:21;19.90;96.60
6666;DHT22;3369;49.906;8.598;2022-08-04T05:02:02;19.90;96.80
6666;DHT22;3369;49.906;8.598;2022-08-04T05:05:01;19.90;97.10
6666;DHT22;3369;49.906;8.598;2022-08-04T05:16:40;20.00;97.60
6666;DHT22;3369;49.906;8.598;2022-08-04T05:22:11;20.10;97.90
6666;DHT22;3369;49.906;8.598;2022-08-04T05:24:40;20.20;98.10
6666;DHT22;3369;49.906;8.598;2022-08-04T05:27:19;20.20;98.10
6666;DHT22;3369;49.906;8.598;2022-08-04T05:29:54;20.30;98.30
6666;DHT22;3369;49.906;8.598;2022-08-04T05:32:25;20.30;98.50
6666;DHT22;3369;49.906;8.598;2022-08-04T05:34:57;20.40;98.60
6666;DHT22;3369;49.906;8.598;2022-08-04T05:37:26;20.40;98.60
6666;DHT22;3369;49.906;8.598;2022-08-04T05:39:57;20.50;98.80
6666;DHT22;3369;49.906;8.598;2022-08-04T05:42:24;20.60;98.90
6666;DHT22;3369;49.906;8.598;2022-08-04T05:44:50;20.60;99.00
6666;DHT22;3369;49.906;8.598;2022-08-04T05:47:17;20.70;99.00
6666;DHT22;3369;49.906;8.598;2022-08-04T05:49:46;20.80;99.10
6666;DHT22;3369;49.906;8.598;2022-08-04T05:52:13;20.90;99.20
6666;DHT22;3369;49.906;8.598;2022-08-04T05:54:40;21.00;99.30
6666;DHT22;3369;49.906;8.598;2022-08-04T05:57:07;21.20;99.40
6666;DHT22;3369;49.906;8.598;2022-08-04T05:59:37;21.40;99.30
6666;DHT22;3369;49.906;8.598;2022-08-04T06:02:04;21.60;99.20
6666;DHT22;3369;49.906;8.598;2022-08-04T06:04:44;21.70;99.00
6666;DHT22;3369;49.906;8.598;2022-08-04T06:07:09;21.80;98.80
6666;DHT22;3369;49.906;8.598;2022-08-04T06:09:36;22.00;98.60
6666;DHT22;3369;49.906;8.598;2022-08-04T06:12:07;22.10;98.50
6666;DHT22;3369;49.906;8.598;2022-08-04T06:14:43;22.30;98.40
6666;DHT22;3369;49.906;8.598;2022-08-04T06:17:14;22.40;98.40
6666;DHT22;3369;49.906;8.598;2022-08-04T06:19:45;22.50;98.30
6666;DHT22;3369;49.906;8.598;2022-08-04T06:22:13;22.70;98.20
6666;DHT22;3369;49.906;8.598;2022-08-04T06:24:40;22.80;98.10
6666;DHT22;3369;49.906;8.598;2022-08-04T06:27:08;23.00;97.90
6666;DHT22;3369;49.906;8.598;2022-08-04T06:29:35;23.20;97.70
6666;DHT22;3369;49.906;8.598;2022-08-04T06:32:06;23.30;97.30
6666;DHT22;3369;49.906;8.598;2022-08-04T06:35:03;23.50;97.20
6666;DHT22;3369;49.906;8.598;2022-08-04T06:37:30;23.60;97.00
6666;DHT22;3369;49.906;8.598;2022-08-04T06:39:57;23.80;96.80
6666;DHT22;3369;49.906;8.598;2022-08-04T06:42:25;24.00;96.60
6666;DHT22;3369;49.906;8.598;2022-08-04T06:44:57;24.10;96.40
6666;DHT22;3369;49.906;8.598;2022-08-04T06:47:23;24.30;96.00
6666;DHT22;3369;49.906;8.598;2022-08-04T06:49:54;24.40;95.70
6666;DHT22;3369;49.906;8.598;2022-08-04T06:52:21;24.50;95.50
6666;DHT22;3369;49.906;8.598;2022-08-04T06:54:47;24.60;95.40
6666;DHT22;3369;49.906;8.598;2022-08-04T06:57:19;24.60;94.90
6666;DHT22;3369;49.906;8.598;2022-08-04T06:59:48;24.70;94.50
6666;DHT22;3369;49.906;8.598;2022-08-04T07:02:19;24.80;93.40
6666;DHT22;3369;49.906;8.598;2022-08-04T07:04:47;25.00;93.00
6666;DHT22;3369;49.906;8.598;2022-08-04T07:07:13;25.20;92.80
6666;DHT22;3369;49.906;8.598;2022-08-04T07:09:39;25.30;92.50
6666;DHT22;3369;49.906;8.598;2022-08-04T07:12:07;25.50;92.30
6666;DHT22;3369;49.906;8.598;2022-08-04T07:14:34;25.60;92.00
6666;DHT22;3369;49.906;8.598;2022-08-04T07:17:07;25.70;91.90
6666;DHT22;3369;49.906;8.598;2022-08-04T07:19:36;25.90;91.60
6666;DHT22;3369;49.906;8.598;2022-08-04T07:22:03;26.00;91.40
6666;DHT22;3369;49.906;8.598;2022-08-04T07:24:32;26.20;91.10
6666;DHT22;3369;49.906;8.598;2022-08-04T07:26:58;26.30;91.10
6666;DHT22;3369;49.906;8.598;2022-08-04T07:29:25;26.40;90.90
6666;DHT22;3369;49.906;8.598;2022-08-04T07:31:54;26.60;90.00
6666;DHT22;3369;49.906;8.598;2022-08-04T07:34:20;26.70;89.80
6666;DHT22;3369;49.906;8.598;2022-08-04T07:36:51;26.80;89.00
6666;DHT22;3369;49.906;8.598;2022-08-04T07:39:17;27.00;88.20
6666;DHT22;3369;49.906;8.598;2022-08-04T07:41:43;27.20;87.70
6666;DHT22;3369;49.906;8.598;2022-08-04T07:44:13;27.30;85.70
6666;DHT22;3369;49.906;8.598;2022-08-04T07:46:39;27.50;85.90
6666;DHT22;3369;49.906;8.598;2022-08-04T07:49:05;27.60;84.20
6666;DHT22;3369;49.906;8.598;2022-08-04T07:51:32;27.70;82.80
6666;DHT22;3369;49.906;8.598;2022-08-04T07:54:00;27.90;81.50
6666;DHT22;3369;49.906;8.598;2022-08-04T07:56:28;28.00;81.20
6666;DHT22;3369;49.906;8.598;2022-08-04T07:58:54;28.10;79.50
6666;DHT22;3369;49.906;8.598;2022-08-04T08:01:21;28.20;78.50
6666;DHT22;3369;49.906;8.598;2022-08-04T08:03:48;28.30;77.50
6666;DHT22;3369;49.906;8.598;2022-08-04T08:06:15;28.40;77.60
6666;DHT22;3369;49.906;8.598;2022-08-04T08:08:41;28.40;77.10
6666;DHT22;3369;49.906;8.598;2022-08-04T08:11:07;28.60;76.80
6666;DHT22;3369;49.906;8.598;2022-08-04T08:13:35;28.70;76.70
6666;DHT22;3369;49.906;8.598;2022-08-04T08:16:01;28.80;75.20
6666;DHT22;3369;49.906;8.598;2022-08-04T08:18:29;28.90;75.60
6666;DHT22;3369;49.906;8.598;2022-08-04T08:20:55;29.00;74.20
6666;DHT22;3369;49.906;8.598;2022-08-04T08:23:21;29.10;73.30
6666;DHT22;3369;49.906;8.598;2022-08-04T08:25:47;29.20;73.70
6666;DHT22;3369;49.906;8.598;2022-08-04T08:28:13;29.30;71.40
6666;DHT22;3369;49.906;8.598;2022-08-04T08:30:40;29.40;71.00
6666;DHT22;3369;49.906;8.598;2022-08-04T08:33:11;29.50;71.10
6666;DHT22;3369;49.906;8.598;2022-08-04T08:35:46;29.60;71.10
6666;DHT22;3369;49.906;8.598;2022-08-04T08:38:15;29.70;71.00
6666;DHT22;3369;49.906;8.598;2022-08-04T08:40:52;29.80;71.00
6666;DHT22;3369;49.906;8.598;2022-08-04T08:46:33;30.10;70.40
6666;DHT22;3369;49.906;8.598;2022-08-04T09:06:08;30.90;66.00
6666;DHT22;3369;49.906;8.598;2022-08-04T09:11:12;31.00;65.20
6666;DHT22;3369;49.906;8.598;2022-08-04T09:17:05;31.20;65.20
6666;DHT22;3369;49.906;8.598;2022-08-04T09:19:51;31.40;64.70
6666;DHT22;3369;49.906;8.598;2022-08-04T09:22:34;31.50;62.80
6666;DHT22;3369;49.906;8.598;2022-08-04T09:25:08;31.60;63.50
6666;DHT22;3369;49.906;8.598;2022-08-04T09:27:51;31.70;62.90
6666;DHT22;3369;49.906;8.598;2022-08-04T09:30:19;31.80;61.60
6666;DHT22;3369;49.906;8.598;2022-08-04T09:33:03;31.90;60.50
6666;DHT22;3369;49.906;8.598;2022-08-04T09:38:26;32.10;60.40
6666;DHT22;3369;49.906;8.598;2022-08-04T09:46:56;32.50;59.30
6666;DHT22;3369;49.906;8.598;2022-08-04T09:49:39;32.50;59.50
6666;DHT22;3369;49.906;8.598;2022-08-04T09:52:26;32.70;59.00
6666;DHT22;3369;49.906;8.598;2022-08-04T09:57:40;32.80;59.00
6666;DHT22;3369;49.906;8.598;2022-08-04T10:00:13;32.90;58.20
6666;DHT22;3369;49.906;8.598;2022-08-04T10:02:58;33.00;58.20
6666;DHT22;3369;49.906;8.598;2022-08-04T10:11:15;33.30;57.40
6666;DHT22;3369;49.906;8.598;2022-08-04T10:19:41;33.60;57.00
6666;DHT22;3369;49.906;8.598;2022-08-04T10:22:26;33.70;57.10
6666;DHT22;3369;49.906;8.598;2022-08-04T10:27:45;33.60;55.50
6666;DHT22;3369;49.906;8.598;2022-08-04T10:30:10;33.70;56.20
6666;DHT22;3369;49.906;8.598;2022-08-04T10:32:52;33.70;55.10
6666;DHT22;3369;49.906;8.598;2022-08-04T10:35:25;33.80;55.40
6666;DHT22;3369;49.906;8.598;2022-08-04T10:40:41;34.10;55.30
6666;DHT22;3369;49.906;8.598;2022-08-04T10:46:07;34.10;55.40
6666;DHT22;3369;49.906;8.598;2022-08-04T10:48:59;34.20;54.50
6666;DHT22;3369;49.906;8.598;2022-08-04T10:51:29;34.20;53.10
6666;DHT22;3369;49.906;8.598;2022-08-04T10:54:38;34.20;52.40
6666;DHT22;3369;49.906;8.598;2022-08-04T11:00:14;34.30;52.90
6666;DHT22;3369;49.906;8.598;2022-08-04T11:02:58;34.30;53.00
6666;DHT22;3369;49.906;8.598;2022-08-04T11:05:45;34.40;53.60
6666;DHT22;3369;49.906;8.598;2022-08-04T11:08:15;34.50;53.60
6666;DHT22;3369;49.906;8.598;2022-08-04T11:13:16;34.70;52.20
6666;DHT22;3369;49.906;8.598;2022-08-04T11:16:04;34.80;52.10
6666;DHT22;3369;49.906;8.598;2022-08-04T11:21:27;34.80;52.90
6666;DHT22;3369;49.906;8.598;2022-08-04T11:27:18;35.00;50.90
6666;DHT22;3369;49.906;8.598;2022-08-04T11:30:04;35.00;51.50
6666;DHT22;3369;49.906;8.598;2022-08-04T11:35:06;35.20;49.70
6666;DHT22;3369;49.906;8.598;2022-08-04T11:40:26;35.30;50.00
6666;DHT22;3369;49.906;8.598;2022-08-04T11:43:00;35.40;49.20
6666;DHT22;3369;49.906;8.598;2022-08-04T11:45:46;35.40;49.10
6666;DHT22;3369;49.906;8.598;2022-08-04T11:48:22;35.50;49.00
6666;DHT22;3369;49.906;8.598;2022-08-04T11:50:52;35.50;49.00
6666;DHT22;3369;49.906;8.598;2022-08-04T11:53:22;35.60;48.20
6666;DHT22;3369;49.906;8.598;2022-08-04T11:55:51;35.60;48.10
6666;DHT22;3369;49.906;8.598;2022-08-04T11:58:19;35.70;46.60
6666;DHT22;3369;49.906;8.598;2022-08-04T12:01:09;35.70;45.90
6666;DHT22;3369;49.906;8.598;2022-08-04T12:09:38;35.80;45.30
6666;DHT22;3369;49.906;8.598;2022-08-04T12:12:18;35.80;45.10
6666;DHT22;3369;49.906;8.598;2022-08-04T12:15:14;35.90;45.50
6666;DHT22;3369;49.906;8.598;2022-08-04T12:18:09;35.90;45.20
6666;DHT22;3369;49.906;8.598;2022-08-04T12:20:44;36.00;45.70
6666;DHT22;3369;49.906;8.598;2022-08-04T12:23:25;36.00;44.90
6666;DHT22;3369;49.906;8.598;2022-08-04T12:25:57;36.10;44.50
6666;DHT22;3369;49.906;8.598;2022-08-04T12:28:34;36.10;43.80
6666;DHT22;3369;49.906;8.598;2022-08-04T12:31:07;36.10;42.90
6666;DHT22;3369;49.906;8.598;2022-08-04T12:33:44;36.20;43.70
6666;DHT22;3369;49.906;8.598;2022-08-04T12:36:39;36.20;43.60
6666;DHT22;3369;49.906;8.598;2022-08-04T12:39:16;36.30;43.30
6666;DHT22;3369;49.906;8.598;2022-08-04T12:42:07;36.40;43.50
6666;DHT22;3369;49.906;8.598;2022-08-04T12:44:38;36.60;43.80
6666;DHT22;3369;49.906;8.598;2022-08-04T12:47:10;36.60;43.70
6666;DHT22;3369;49.906;8.598;2022-08-04T12:49:40;36.70;43.90
6666;DHT22;3369;49.906;8.598;2022-08-04T12:52:10;36.70;43.80
6666;DHT22;3369;49.906;8.598;2022-08-04T12:54:40;36.70;43.00
6666;DHT22;3369;49.906;8.598;2022-08-04T12:57:08;36.70;42.90
6666;DHT22;3369;49.906;8.598;2022-08-04T12:59:53;36.60;42.40
6666;DHT22;3369;49.906;8.598;2022-08-04T13:02:28;36.60;42.50
6666;DHT22;3369;49.906;8.598;2022-08-04T13:04:58;36.40;43.20
6666;DHT22;3369;49.906;8.598;2022-08-04T13:07:26;36.30;43.30
6666;DHT22;3369;49.906;8.598;2022-08-04T13:09:53;36.30;43.00
6666;DHT22;3369;49.906;8.598;2022-08-04T13:12:24;36.20;43.70
6666;DHT22;3369;49.906;8.598;2022-08-04T13:14:56;36.10;43.60
6666;DHT22;3369;49.906;8.598;2022-08-04T13:17:23;36.00;43.80
6666;DHT22;3369;49.906;8.598;2022-08-04T13:19:50;36.00;43.80
6666;DHT22;3369;49.906;8.598;2022-08-04T13:22:27;36.00;44.30
6666;DHT22;3369;49.906;8.598;2022-08-04T13:24:56;36.10;43.80
6666;DHT22;3369;49.906;8.598;2022-08-04T13:27:23;36.10;43.80
6666;DHT22;3369;49.906;8.598;2022-08-04T13:29:51;36.10;44.40
6666;DHT22;3369;49.906;8.598;2022-08-04T13:32:21;36.20;44.10
6666;DHT22;3369;49.906;8.598;2022-08-04T13:34:50;36.20;44.30
6666;DHT22;3369;49.906;8.598;2022-08-04T13:37:18;36.20;43.40
6666;DHT22;3369;49.906;8.598;2022-08-04T13:39:48;36.20;43.40
6666;DHT22;3369;49.906;8.598;2022-08-04T13:42:15;36.20;43.60
6666;DHT22;3369;49.906;8.598;2022-08-04T13:44:48;36.20;44.10
6666;DHT22;3369;49.906;8.598;2022-08-04T13:47:24;36.20;44.10
6666;DHT22;3369;49.906;8.598;2022-08-04T13:50:11;36.00;44.50
6666;DHT22;3369;49.906;8.598;2022-08-04T14:12:56;35.40;44.50
6666;DHT22;3369;49.906;8.598;2022-08-04T14:15:37;35.30;45.40
6666;DHT22;3369;49.906;8.598;2022-08-04T14:18:16;35.40;44.20
6666;DHT22;3369;49.906;8.598;2022-08-04T14:21:06;35.30;44.40
6666;DHT22;3369;49.906;8.598;2022-08-04T14:28:45;35.30;45.00
6666;DHT22;3369;49.906;8.598;2022-08-04T14:31:22;35.40;44.80
6666;DHT22;3369;49.906;8.598;2022-08-04T14:33:50;35.50;44.40
6666;DHT22;3369;49.906;8.598;2022-08-04T14:36:17;35.50;43.20
6666;DHT22;3369;49.906;8.598;2022-08-04T14:38:50;35.60;42.90
6666;DHT22;3369;49.906;8.598;2022-08-04T14:41:19;35.50;43.70
6666;DHT22;3369;49.906;8.598;2022-08-04T14:46:14;35.70;43.90
6666;DHT22;3369;49.906;8.598;2022-08-04T14:48:59;35.60;43.70
6666;DHT22;3369;49.906;8.598;2022-08-04T14:51:25;35.50;43.90
6666;DHT22;3369;49.906;8.598;2022-08-04T14:53:51;35.40;44.40
6666;DHT22;3369;49.906;8.598;2022-08-04T14:56:16;35.30;44.60
6666;DHT22;3369;49.906;8.598;2022-08-04T14:58:42;35.20;44.40
6666;DHT22;3369;49.906;8.598;2022-08-04T15:01:10;35.10;44.50
6666;DHT22;3369;49.906;8.598;2022-08-04T15:03:39;35.00;44.60
6666;DHT22;3369;49.906;8.598;2022-08-04T15:06:05;35.00;44.50
6666;DHT22;3369;49.906;8.598;2022-08-04T15:08:31;35.10;44.50
6666;DHT22;3369;49.906;8.598;2022-08-04T15:11:00;35.10;44.50
6666;DHT22;3369;49.906;8.598;2022-08-04T15:13:27;35.30;44.10
6666;DHT22;3369;49.906;8.598;2022-08-04T15:15:53;35.30;44.20
6666;DHT22;3369;49.906;8.598;2022-08-04T15:18:20;35.30;45.00
6666;DHT22;3369;49.906;8.598;2022-08-04T15:20:46;35.50;45.00
6666;DHT22;3369;49.906;8.598;2022-08-04T15:23:11;35.50;44.20
6666;DHT22;3369;49.906;8.598;2022-08-04T15:25:46;35.60;44.00
6666;DHT22;3369;49.906;8.598;2022-08-04T15:28:17;35.60;43.70
6666;DHT22;3369;49.906;8.598;2022-08-04T15:30:45;35.60;43.20
6666;DHT22;3369;49.906;8.598;2022-08-04T15:33:13;35.60;43.20
6666;DHT22;3369;49.906;8.598;2022-08-04T15:35:45;35.60;42.70
6666;DHT22;3369;49.906;8.598;2022-08-04T15:38:26;35.70;42.90
6666;DHT22;3369;49.906;8.598;2022-08-04T15:41:09;35.70;42.90
6666;DHT22;3369;49.906;8.598;2022-08-04T15:47:07;35.60;42.90
6666;DHT22;3369;49.906;8.598;2022-08-04T15:49:33;35.50;43.10
6666;DHT22;3369;49.906;8.598;2022-08-04T15:52:04;35.40;43.10
6666;DHT22;3369;49.906;8.598;2022-08-04T15:54:30;35.30;43.30
6666;DHT22;3369;49.906;8.598;2022-08-04T15:56:55;35.20;43.60
6666;DHT22;3369;49.906;8.598;2022-08-04T16:08:13;35.30;43.60
6666;DHT22;3369;49.906;8.598;2022-08-04T16:10:41;35.30;44.40
6666;DHT22;3369;49.906;8.598;2022-08-04T16:13:26;35.30;44.70
6666;DHT22;3369;49.906;8.598;2022-08-04T16:15:52;35.30;44.10
6666;DHT22;3369;49.906;8.598;2022-08-04T16:20:58;35.20;43.40
6666;DHT22;3369;49.906;8.598;2022-08-04T16:25:55;35.20;43.10
6666;DHT22;3369;49.906;8.598;2022-08-04T16:28:41;35.20;43.40
6666;DHT22;3369;49.906;8.598;2022-08-04T16:31:11;35.10;43.50
6666;DHT22;3369;49.906;8.598;2022-08-04T16:33:38;35.20;43.50
6666;DHT22;3369;49.906;8.598;2022-08-04T16:36:10;35.20;43.10
6666;DHT22;3369;49.906;8.598;2022-08-04T16:39:03;35.20;42.90
6666;DHT22;3369;49.906;8.598;2022-08-04T16:41:42;35.10;42.60
6666;DHT22;3369;49.906;8.598;2022-08-04T16:44:30;35.10;42.70
6666;DHT22;3369;49.906;8.598;2022-08-04T16:46:57;35.10;43.00
6666;DHT22;3369;49.906;8.598;2022-08-04T16:49:25;35.00;43.30
6666;DHT22;3369;49.906;8.598;2022-08-04T16:51:52;35.00;42.70
6666;DHT22;3369;49.906;8.598;2022-08-04T16:54:18;35.00;42.80
6666;DHT22;3369;49.906;8.598;2022-08-04T16:56:45;35.00;43.10
6666;DHT22;3369;49.906;8.598;2022-08-04T16:59:12;34.90;43.50
6666;DHT22;3369;49.906;8.598;2022-08-04T17:01:45;34.80;43.20
6666;DHT22;3369;49.906;8.598;2022-08-04T17:04:12;34.80;43.40
6666;DHT22;3369;49.906;8.598;2022-08-04T17:06:39;34.80;43.40
6666;DHT22;3369;49.906;8.598;2022-08-04T17:09:12;34.80;43.50
6666;DHT22;3369;49.906;8.598;2022-08-04T17:11:39;34.80;43.30
6666;DHT22;3369;49.906;8.598;2022-08-04T17:14:05;34.80;43.40
6666;DHT22;3369;49.906;8.598;2022-08-04T17:16:36;34.70;43.60
6666;DHT22;3369;49.906;8.598;2022-08-04T17:19:03;34.60;43.40
6666;DHT22;3369;49.906;8.598;2022-08-04T17:21:31;34.70;44.00
6666;DHT22;3369;49.906;8.598;2022-08-04T17:23:59;34.60;43.10
6666;DHT22;3369;49.906;8.598;2022-08-04T17:26:27;34.60;43.10
6666;DHT22;3369;49.906;8.598;2022-08-04T17:28:54;34.60;43.30
6666;DHT22;3369;49.906;8.598;2022-08-04T17:31:22;34.50;43.00
6666;DHT22;3369;49.906;8.598;2022-08-04T17:33:57;34.50;43.70
6666;DHT22;3369;49.906;8.598;2022-08-04T17:36:24;34.40;43.80
6666;DHT22;3369;49.906;8.598;2022-08-04T17:38:53;34.40;43.80
6666;DHT22;3369;49.906;8.598;2022-08-04T17:41:23;34.40;43.90
6666;DHT22;3369;49.906;8.598;2022-08-04T17:51:39;34.20;44.50
6666;DHT22;3369;49.906;8.598;2022-08-04T17:54:07;34.10;44.20
6666;DHT22;3369;49.906;8.598;2022-08-04T17:56:42;34.10;44.20
6666;DHT22;3369;49.906;8.598;2022-08-04T17:59:23;34.00;44.10
6666;DHT22;3369;49.906;8.598;2022-08-04T18:07:14;34.00;44.80
6666;DHT22;3369;49.906;8.598;2022-08-04T18:09:48;33.90;44.90
6666;DHT22;3369;49.906;8.598;2022-08-04T18:12:31;33.80;44.80
6666;DHT22;3369;49.906;8.598;2022-08-04T18:17:36;33.70;44.80
6666;DHT22;3369;49.906;8.598;2022-08-04T18:20:05;33.70;44.80
6666;DHT22;3369;49.906;8.598;2022-08-04T18:22:32;33.70;44.90
6666;DHT22;3369;49.906;8.598;2022-08-04T18:24:58;33.60;45.20
6666;DHT22;3369;49.906;8.598;2022-08-04T18:27:26;33.50;45.70
6666;DHT22;3369;49.906;8.598;2022-08-04T18:29:53;33.40;46.20
6666;DHT22;3369;49.906;8.598;2022-08-04T18:32:19;33.20;46.70
6666;DHT22;3369;49.906;8.598;2022-08-04T18:34:46;33.10;47.20
6666;DHT22;3369;49.906;8.598;2022-08-04T18:37:12;32.90;47.40
6666;DHT22;3369;49.906;8.598;2022-08-04T18:39:37;32.80;47.60
6666;DHT22;3369;49.906;8.598;2022-08-04T18:42:03;32.70;47.90
6666;DHT22;3369;49.906;8.598;2022-08-04T18:44:32;32.50;48.50
6666;DHT22;3369;49.906;8.598;2022-08-04T18:46:59;32.40;48.80
6666;DHT22;3369;49.906;8.598;2022-08-04T18:49:25;32.30;48.90
6666;DHT22;3369;49.906;8.598;2022-08-04T18:51:52;32.30;48.90
6666;DHT22;3369;49.906;8.598;2022-08-04T18:54:19;32.20;49.00
6666;DHT22;3369;49.906;8.598;2022-08-04T18:56:45;32.10;49.50
6666;DHT22;3369;49.906;8.598;2022-08-04T18:59:11;32.00;49.90
6666;DHT22;3369;49.906;8.598;2022-08-04T19:01:37;31.90;49.90
6666;DHT22;3369;49.906;8.598;2022-08-04T19:04:03;31.80;50.00
6666;DHT22;3369;49.906;8.598;2022-08-04T19:06:29;31.70;50.20
6666;DHT22;3369;49.906;8.598;2022-08-04T19:08:55;31.60;50.40
6666;DHT22;3369;49.906;8.598;2022-08-04T19:11:21;31.50;50.70
6666;DHT22;3369;49.906;8.598;2022-08-04T19:13:46;31.40;51.00
6666;DHT22;3369;49.906;8.598;2022-08-04T19:16:12;31.30;51.30
6666;DHT22;3369;49.906;8.598;2022-08-04T19:18:38;31.20;51.70
6666;DHT22;3369;49.906;8.598;2022-08-04T19:21:04;31.00;52.00
6666;DHT22;3369;49.906;8.598;2022-08-04T19:23:29;31.00;52.30
6666;DHT22;3369;49.906;8.598;2022-08-04T19:25:56;30.90;52.30
6666;DHT22;3369;49.906;8.598;2022-08-04T19:28:23;30.80;52.30
6666;DHT22;3369;49.906;8.598;2022-08-04T19:30:49;30.70;52.50
6666;DHT22;3369;49.906;8.598;2022-08-04T19:33:15;30.60;52.70
6666;DHT22;3369;49.906;8.598;2022-08-04T19:35:41;30.50;52.80
6666;DHT22;3369;49.906;8.598;2022-08-04T19:38:08;30.40;53.40
6666;DHT22;3369;49.906;8.598;2022-08-04T19:40:36;30.30;53.80
6666;DHT22;3369;49.906;8.598;2022-08-04T19:43:02;30.20;54.10
6666;DHT22;3369;49.906;8.598;2022-08-04T19:45:28;30.00;54.40
6666;DHT22;3369;49.906;8.598;2022-08-04T19:47:53;30.00;54.90
6666;DHT22;3369;49.906;8.598;2022-08-04T19:50:20;29.90;55.30
6666;DHT22;3369;49.906;8.598;2022-08-04T19:52:45;29.70;55.60
6666;DHT22;3369;49.906;8.598;2022-08-04T19:55:11;29.60;55.80
6666;DHT22;3369;49.906;8.598;2022-08-04T19:57:38;29.50;55.90
6666;DHT22;3369;49.906;8.598;2022-08-04T20:00:13;29.50;56.00
6666;DHT22;3369;49.906;8.598;2022-08-04T20:02:39;29.40;56.00
6666;DHT22;3369;49.906;8.598;2022-08-04T20:05:05;29.30;56.20
6666;DHT22;3369;49.906;8.598;2022-08-04T20:07:32;29.30;56.60
6666;DHT22;3369;49.906;8.598;2022-08-04T20:09:58;29.20;57.00
6666;DHT22;3369;49.906;8.598;2022-08-04T20:12:23;29.10;57.00
6666;DHT22;3369;49.906;8.598;2022-08-04T20:14:49;29.10;57.10
6666;DHT22;3369;49.906;8.598;2022-08-04T20:17:14;29.00;57.30
6666;DHT22;3369;49.906;8.598;2022-08-04T20:19:40;28.90;57.40
6666;DHT22;3369;49.906;8.598;2022-08-04T20:22:06;28.90;57.60
6666;DHT22;3369;49.906;8.598;2022-08-04T20:24:32;28.80;57.70
6666;DHT22;3369;49.906;8.598;2022-08-04T20:26:58;28.80;57.70
6666;DHT22;3369;49.906;8.598;2022-08-04T20:29:23;28.80;57.50
6666;DHT22;3369;49.906;8.598;2022-08-04T20:31:49;28.80;57.70
6666;DHT22;3369;49.906;8.598;2022-08-04T20:34:15;28.70;58.00
6666;DHT22;3369;49.906;8.598;2022-08-04T20:36:41;28.60;58.10
6666;DHT22;3369;49.906;8.598;2022-08-04T20:39:06;28.60;58.30
6666;DHT22;3369;49.906;8.598;2022-08-04T20:41:33;28.60;58.20
6666;DHT22;3369;49.906;8.598;2022-08-04T20:43:58;28.50;58.10
6666;DHT22;3369;49.906;8.598;2022-08-04T20:46:24;28.50;58.20
6666;DHT22;3369;49.906;8.598;2022-08-04T20:48:51;28.50;58.70
6666;DHT22;3369;49.906;8.598;2022-08-04T20:51:17;28.40;58.90
6666;DHT22;3369;49.906;8.598;2022-08-04T20:53:45;28.30;59.50
6666;DHT22;3369;49.906;8.598;2022-08-04T20:56:12;28.20;59.80
6666;DHT22;3369;49.906;8.598;2022-08-04T20:58:38;28.10;60.00
6666;DHT22;3369;49.906;8.598;2022-08-04T21:01:03;28.00;60.40
6666;DHT22;3369;49.906;8.598;2022-08-04T21:03:29;27.90;60.60
6666;DHT22;3369;49.906;8.598;2022-08-04T21:05:55;27.90;60.50
6666;DHT22;3369;49.906;8.598;2022-08-04T21:08:24;27.90;60.60
6666;DHT22;3369;49.906;8.598;2022-08-04T21:10:49;27.80;60.60
6666;DHT22;3369;49.906;8.598;2022-08-04T21:13:15;27.70;60.90
6666;DHT22;3369;49.906;8.598;2022-08-04T21:15:40;27.70;61.50
6666;DHT22;3369;49.906;8.598;2022-08-04T21:18:06;27.60;61.60
6666;DHT22;3369;49.906;8.598;2022-08-04T21:20:33;27.50;61.90
6666;DHT22;3369;49.906;8.598;2022-08-04T21:22:59;27.40;62.00
6666;DHT22;3369;49.906;8.598;2022-08-04T21:25:24;27.40;62.40
6666;DHT22;3369;49.906;8.598;2022-08-04T21:27:51;27.30;62.50
6666;DHT22;3369;49.906;8.598;2022-08-04T21:30:16;27.30;62.90
6666;DHT22;3369;49.906;8.598;2022-08-04T21:32:42;27.20;63.00
6666;DHT22;3369;49.906;8.598;2022-08-04T21:35:08;27.20;63.20